Springfield, Nebraska
Current Conditions -  °F | °C
As of 12:35 PM on Saturday 25 Oct 2014 (Local Time) from KMLE Reporting Station
Clear Clear  
Wind Chill: 67°   Ceiling: Unl
Heat Index: 67°   Visibility: 10mi
Dew Point: 44°   Wind: 3mph
Humidity: 42%   Direction: 70°ENE
Pressure: 30.11"   Gusts: NA
Location:  41.08°N, 96.13°W
Report Text: KMLE 251735Z AUTO 07003KT 10SM CLR 20/07 A3011 RMK AO2 T01970065
Loading
Personal Weather Stations






























Interactive Weather Map
Tropical Storm Tracking
New forecast layout! Learn more

10-Day Weather Forecast

Advertisements
Track Severe Weather on mobile